Blackfoot, Montana
Current Conditions -  °F | °C
As of 11:56 PM on Friday 24 Oct 2014 (Local Time) from KCTB Reporting Station
Overcast Overcast  
Wind Chill: 44°   Ceiling: 11000
Heat Index: 44°   Visibility: 10mi
Dew Point: 32°   Wind: 3mph
Humidity: 63%   Direction: 190°S
Pressure: 30.06"   Gusts: NA
Location:  48.5484°N, 112.952°W
Report Text: KCTB 250556Z AUTO 19003KT 10SM OVC110 07/00 A3006 RMK AO2 SLP182 T00670000 10094 20056 50004
Loading
Personal Weather Stations






























Interactive Weather Map
Tropical Storm Tracking
New forecast layout! Learn more

10-Day Weather Forecast

Advertisements
Track Severe Weather on mobile